sensor_id;sensor_type;location;lat;lon;timestamp;P1;durP1;ratioP1;P2;durP2;ratioP2
1358;SDS011;673;48.098;14.422;2024-02-28T00:01:48;192.63;;;176.67;;
1358;SDS011;673;48.098;14.422;2024-02-28T00:04:16;221.40;;;205.50;;
1358;SDS011;673;48.098;14.422;2024-02-28T00:06:43;199.93;;;184.17;;
1358;SDS011;673;48.098;14.422;2024-02-28T00:09:11;203.67;;;188.20;;
1358;SDS011;673;48.098;14.422;2024-02-28T00:11:41;137.93;;;123.83;;
1358;SDS011;673;48.098;14.422;2024-02-28T00:14:09;196.97;;;181.57;;
1358;SDS011;673;48.098;14.422;2024-02-28T00:16:36;190.97;;;175.10;;
1358;SDS011;673;48.098;14.422;2024-02-28T00:19:08;220.70;;;204.70;;
1358;SDS011;673;48.098;14.422;2024-02-28T00:21:36;205.60;;;190.03;;
1358;SDS011;673;48.098;14.422;2024-02-28T00:24:03;190.90;;;175.57;;
1358;SDS011;673;48.098;14.422;2024-02-28T00:26:31;180.70;;;165.83;;
1358;SDS011;673;48.098;14.422;2024-02-28T00:28:58;176.10;;;160.90;;
1358;SDS011;673;48.098;14.422;2024-02-28T00:31:25;171.40;;;156.63;;
1358;SDS011;673;48.098;14.422;2024-02-28T00:33:51;172.47;;;157.50;;
1358;SDS011;673;48.098;14.422;2024-02-28T00:36:20;132.17;;;118.40;;
1358;SDS011;673;48.098;14.422;2024-02-28T00:38:47;137.07;;;122.67;;
1358;SDS011;673;48.098;14.422;2024-02-28T00:41:14;120.70;;;101.47;;
1358;SDS011;673;48.098;14.422;2024-02-28T00:43:41;124.33;;;95.93;;
1358;SDS011;673;48.098;14.422;2024-02-28T00:46:07;121.33;;;95.23;;
1358;SDS011;673;48.098;14.422;2024-02-28T00:48:37;131.30;;;103.80;;
1358;SDS011;673;48.098;14.422;2024-02-28T00:51:04;118.10;;;86.20;;
1358;SDS011;673;48.098;14.422;2024-02-28T00:53:32;123.57;;;110.20;;
1358;SDS011;673;48.098;14.422;2024-02-28T00:55:59;153.63;;;138.90;;
1358;SDS011;673;48.098;14.422;2024-02-28T00:58:26;145.23;;;130.93;;
1358;SDS011;673;48.098;14.422;2024-02-28T01:00:55;153.07;;;137.90;;
1358;SDS011;673;48.098;14.422;2024-02-28T01:03:22;133.37;;;119.30;;
1358;SDS011;673;48.098;14.422;2024-02-28T01:05:49;139.77;;;125.17;;
1358;SDS011;673;48.098;14.422;2024-02-28T01:08:16;138.73;;;124.93;;
1358;SDS011;673;48.098;14.422;2024-02-28T01:10:45;133.80;;;119.77;;
1358;SDS011;673;48.098;14.422;2024-02-28T01:13:12;125.83;;;111.77;;
1358;SDS011;673;48.098;14.422;2024-02-28T01:15:40;123.77;;;109.57;;
1358;SDS011;673;48.098;14.422;2024-02-28T01:18:07;119.87;;;95.63;;
1358;SDS011;673;48.098;14.422;2024-02-28T01:20:34;122.43;;;102.53;;
1358;SDS011;673;48.098;14.422;2024-02-28T01:23:01;119.93;;;93.47;;
1358;SDS011;673;48.098;14.422;2024-02-28T01:25:29;119.70;;;103.17;;
1358;SDS011;673;48.098;14.422;2024-02-28T01:27:57;127.13;;;100.00;;
1358;SDS011;673;48.098;14.422;2024-02-28T01:30:24;125.13;;;105.40;;
1358;SDS011;673;48.098;14.422;2024-02-28T01:32:52;125.60;;;112.30;;
1358;SDS011;673;48.098;14.422;2024-02-28T01:35:19;131.60;;;117.97;;
1358;SDS011;673;48.098;14.422;2024-02-28T01:37:46;142.93;;;128.70;;
1358;SDS011;673;48.098;14.422;2024-02-28T01:40:13;143.57;;;129.07;;
1358;SDS011;673;48.098;14.422;2024-02-28T01:42:40;132.83;;;119.23;;
1358;SDS011;673;48.098;14.422;2024-02-28T01:45:08;141.70;;;127.83;;
1358;SDS011;673;48.098;14.422;2024-02-28T01:47:39;133.27;;;119.43;;
1358;SDS011;673;48.098;14.422;2024-02-28T01:50:06;133.20;;;118.87;;
1358;SDS011;673;48.098;14.422;2024-02-28T01:52:35;128.17;;;114.13;;
1358;SDS011;673;48.098;14.422;2024-02-28T01:55:03;128.13;;;114.50;;
1358;SDS011;673;48.098;14.422;2024-02-28T01:57:31;152.70;;;138.43;;
1358;SDS011;673;48.098;14.422;2024-02-28T02:00:00;199.23;;;184.03;;
1358;SDS011;673;48.098;14.422;2024-02-28T02:02:28;182.93;;;167.17;;
1358;SDS011;673;48.098;14.422;2024-02-28T02:04:55;184.43;;;169.53;;
1358;SDS011;673;48.098;14.422;2024-02-28T02:07:23;199.00;;;183.70;;
1358;SDS011;673;48.098;14.422;2024-02-28T02:09:51;220.23;;;203.67;;
1358;SDS011;673;48.098;14.422;2024-02-28T02:12:18;197.77;;;181.93;;
1358;SDS011;673;48.098;14.422;2024-02-28T02:14:47;224.30;;;207.30;;
1358;SDS011;673;48.098;14.422;2024-02-28T02:17:14;200.93;;;185.53;;
1358;SDS011;673;48.098;14.422;2024-02-28T02:19:42;205.00;;;189.17;;
1358;SDS011;673;48.098;14.422;2024-02-28T02:22:09;190.70;;;175.97;;
1358;SDS011;673;48.098;14.422;2024-02-28T02:24:40;174.27;;;159.10;;
1358;SDS011;673;48.098;14.422;2024-02-28T02:27:07;174.23;;;159.50;;
1358;SDS011;673;48.098;14.422;2024-02-28T02:29:34;184.87;;;169.60;;
1358;SDS011;673;48.098;14.422;2024-02-28T02:32:01;186.73;;;171.53;;
1358;SDS011;673;48.098;14.422;2024-02-28T02:34:28;203.00;;;187.10;;
1358;SDS011;673;48.098;14.422;2024-02-28T02:36:55;204.33;;;188.73;;
1358;SDS011;673;48.098;14.422;2024-02-28T02:39:22;206.97;;;191.37;;
1358;SDS011;673;48.098;14.422;2024-02-28T02:41:51;174.60;;;159.40;;
1358;SDS011;673;48.098;14.422;2024-02-28T02:44:18;194.27;;;179.07;;
1358;SDS011;673;48.098;14.422;2024-02-28T02:46:45;207.57;;;191.83;;
1358;SDS011;673;48.098;14.422;2024-02-28T02:49:12;240.23;;;223.77;;
1358;SDS011;673;48.098;14.422;2024-02-28T02:51:39;237.13;;;220.83;;
1358;SDS011;673;48.098;14.422;2024-02-28T02:54:07;245.97;;;229.23;;
1358;SDS011;673;48.098;14.422;2024-02-28T02:56:34;259.93;;;243.00;;
1358;SDS011;673;48.098;14.422;2024-02-28T02:59:02;250.20;;;233.53;;
1358;SDS011;673;48.098;14.422;2024-02-28T03:01:29;248.93;;;232.03;;
1358;SDS011;673;48.098;14.422;2024-02-28T03:03:56;213.30;;;197.13;;
1358;SDS011;673;48.098;14.422;2024-02-28T03:06:23;209.83;;;193.47;;
1358;SDS011;673;48.098;14.422;2024-02-28T03:08:50;205.93;;;190.33;;
1358;SDS011;673;48.098;14.422;2024-02-28T03:11:17;249.70;;;233.40;;
1358;SDS011;673;48.098;14.422;2024-02-28T03:13:44;218.63;;;202.60;;
1358;SDS011;673;48.098;14.422;2024-02-28T03:16:12;198.50;;;182.50;;
1358;SDS011;673;48.098;14.422;2024-02-28T03:18:39;209.63;;;194.40;;
1358;SDS011;673;48.098;14.422;2024-02-28T03:21:06;226.07;;;209.63;;
1358;SDS011;673;48.098;14.422;2024-02-28T03:23:34;209.57;;;194.20;;
1358;SDS011;673;48.098;14.422;2024-02-28T03:26:01;216.53;;;200.63;;
1358;SDS011;673;48.098;14.422;2024-02-28T03:28:29;188.27;;;172.73;;
1358;SDS011;673;48.098;14.422;2024-02-28T03:30:56;195.33;;;179.93;;
1358;SDS011;673;48.098;14.422;2024-02-28T03:33:24;197.73;;;182.23;;
1358;SDS011;673;48.098;14.422;2024-02-28T03:35:51;195.73;;;180.83;;
1358;SDS011;673;48.098;14.422;2024-02-28T03:38:18;221.67;;;205.57;;
1358;SDS011;673;48.098;14.422;2024-02-28T03:40:45;219.57;;;204.03;;
1358;SDS011;673;48.098;14.422;2024-02-28T03:43:12;249.37;;;232.60;;
1358;SDS011;673;48.098;14.422;2024-02-28T03:45:39;224.57;;;208.50;;
1358;SDS011;673;48.098;14.422;2024-02-28T03:48:06;202.10;;;186.27;;
1358;SDS011;673;48.098;14.422;2024-02-28T03:50:35;246.90;;;230.43;;
1358;SDS011;673;48.098;14.422;2024-02-28T03:53:02;250.57;;;233.87;;
1358;SDS011;673;48.098;14.422;2024-02-28T03:55:30;196.73;;;181.17;;
1358;SDS011;673;48.098;14.422;2024-02-28T03:57:57;195.63;;;180.43;;
1358;SDS011;673;48.098;14.422;2024-02-28T04:00:24;241.80;;;225.43;;
1358;SDS011;673;48.098;14.422;2024-02-28T04:02:51;243.10;;;226.37;;
1358;SDS011;673;48.098;14.422;2024-02-28T04:05:19;236.60;;;220.13;;
1358;SDS011;673;48.098;14.422;2024-02-28T04:07:47;232.03;;;216.20;;
1358;SDS011;673;48.098;14.422;2024-02-28T04:10:14;226.33;;;210.23;;
1358;SDS011;673;48.098;14.422;2024-02-28T04:12:42;195.67;;;180.27;;
1358;SDS011;673;48.098;14.422;2024-02-28T04:15:10;219.10;;;203.30;;
1358;SDS011;673;48.098;14.422;2024-02-28T04:17:37;153.53;;;139.23;;
1358;SDS011;673;48.098;14.422;2024-02-28T04:20:07;225.53;;;209.27;;
1358;SDS011;673;48.098;14.422;2024-02-28T04:22:35;178.57;;;164.10;;
1358;SDS011;673;48.098;14.422;2024-02-28T04:25:04;249.13;;;232.33;;
1358;SDS011;673;48.098;14.422;2024-02-28T04:27:32;239.20;;;222.77;;
1358;SDS011;673;48.098;14.422;2024-02-28T04:29:59;210.50;;;195.27;;
1358;SDS011;673;48.098;14.422;2024-02-28T04:32:26;185.17;;;169.37;;
1358;SDS011;673;48.098;14.422;2024-02-28T04:34:53;222.10;;;205.67;;
1358;SDS011;673;48.098;14.422;2024-02-28T04:37:20;219.87;;;204.00;;
1358;SDS011;673;48.098;14.422;2024-02-28T04:39:47;231.27;;;214.87;;
1358;SDS011;673;48.098;14.422;2024-02-28T04:42:16;258.70;;;241.90;;
1358;SDS011;673;48.098;14.422;2024-02-28T04:44:43;294.63;;;276.97;;
1358;SDS011;673;48.098;14.422;2024-02-28T04:47:10;208.67;;;192.47;;
1358;SDS011;673;48.098;14.422;2024-02-28T04:49:37;218.73;;;202.93;;
1358;SDS011;673;48.098;14.422;2024-02-28T04:52:04;226.37;;;210.23;;
1358;SDS011;673;48.098;14.422;2024-02-28T04:54:32;226.67;;;210.57;;
1358;SDS011;673;48.098;14.422;2024-02-28T04:56:59;222.33;;;206.03;;
1358;SDS011;673;48.098;14.422;2024-02-28T04:59:27;220.13;;;204.13;;
1358;SDS011;673;48.098;14.422;2024-02-28T05:01:54;222.30;;;206.33;;
1358;SDS011;673;48.098;14.422;2024-02-28T05:04:21;229.33;;;213.40;;
1358;SDS011;673;48.098;14.422;2024-02-28T05:06:48;206.10;;;190.37;;
1358;SDS011;673;48.098;14.422;2024-02-28T05:09:16;171.03;;;156.33;;
1358;SDS011;673;48.098;14.422;2024-02-28T05:11:41;191.13;;;176.20;;
1358;SDS011;673;48.098;14.422;2024-02-28T05:14:09;189.37;;;174.00;;
1358;SDS011;673;48.098;14.422;2024-02-28T05:16:38;199.03;;;183.73;;
1358;SDS011;673;48.098;14.422;2024-02-28T05:19:05;217.87;;;201.97;;
1358;SDS011;673;48.098;14.422;2024-02-28T05:21:32;210.87;;;194.53;;
1358;SDS011;673;48.098;14.422;2024-02-28T05:24:05;229.00;;;212.90;;
1358;SDS011;673;48.098;14.422;2024-02-28T05:26:34;203.83;;;187.90;;
1358;SDS011;673;48.098;14.422;2024-02-28T05:29:02;179.47;;;164.40;;
1358;SDS011;673;48.098;14.422;2024-02-28T05:31:29;195.43;;;180.20;;
1358;SDS011;673;48.098;14.422;2024-02-28T05:33:59;192.03;;;176.93;;
1358;SDS011;673;48.098;14.422;2024-02-28T05:36:27;191.23;;;176.03;;
1358;SDS011;673;48.098;14.422;2024-02-28T05:38:56;193.50;;;177.93;;
1358;SDS011;673;48.098;14.422;2024-02-28T05:41:24;182.97;;;168.17;;
1358;SDS011;673;48.098;14.422;2024-02-28T05:43:51;199.57;;;183.93;;
1358;SDS011;673;48.098;14.422;2024-02-28T05:46:18;187.53;;;172.63;;
1358;SDS011;673;48.098;14.422;2024-02-28T05:48:47;204.33;;;188.53;;
1358;SDS011;673;48.098;14.422;2024-02-28T05:51:16;180.47;;;165.63;;
1358;SDS011;673;48.098;14.422;2024-02-28T05:53:43;184.63;;;169.73;;
1358;SDS011;673;48.098;14.422;2024-02-28T05:56:10;181.07;;;166.23;;
1358;SDS011;673;48.098;14.422;2024-02-28T05:58:39;184.47;;;169.30;;
1358;SDS011;673;48.098;14.422;2024-02-28T06:01:08;161.50;;;146.83;;
1358;SDS011;673;48.098;14.422;2024-02-28T06:03:35;175.90;;;161.50;;
1358;SDS011;673;48.098;14.422;2024-02-28T06:06:02;155.57;;;141.37;;
1358;SDS011;673;48.098;14.422;2024-02-28T06:08:32;167.17;;;152.27;;
1358;SDS011;673;48.098;14.422;2024-02-28T06:11:00;195.13;;;179.80;;
1358;SDS011;673;48.098;14.422;2024-02-28T06:13:27;166.03;;;152.10;;
1358;SDS011;673;48.098;14.422;2024-02-28T06:15:54;186.27;;;171.23;;
1358;SDS011;673;48.098;14.422;2024-02-28T06:18:22;195.07;;;179.47;;
1358;SDS011;673;48.098;14.422;2024-02-28T06:20:51;173.07;;;157.20;;
1358;SDS011;673;48.098;14.422;2024-02-28T06:23:19;182.43;;;167.63;;
1358;SDS011;673;48.098;14.422;2024-02-28T06:25:47;152.90;;;139.27;;
1358;SDS011;673;48.098;14.422;2024-02-28T06:28:15;157.67;;;143.57;;
1358;SDS011;673;48.098;14.422;2024-02-28T06:30:42;186.00;;;171.40;;
1358;SDS011;673;48.098;14.422;2024-02-28T06:33:11;192.47;;;177.47;;
1358;SDS011;673;48.098;14.422;2024-02-28T06:35:38;142.93;;;128.53;;
1358;SDS011;673;48.098;14.422;2024-02-28T06:38:05;182.73;;;167.27;;
1358;SDS011;673;48.098;14.422;2024-02-28T06:40:33;191.13;;;176.17;;
1358;SDS011;673;48.098;14.422;2024-02-28T06:43:01;223.37;;;207.47;;
1358;SDS011;673;48.098;14.422;2024-02-28T06:45:30;159.53;;;144.57;;
1358;SDS011;673;48.098;14.422;2024-02-28T06:47:56;178.07;;;163.27;;
1358;SDS011;673;48.098;14.422;2024-02-28T06:50:23;195.70;;;180.43;;
1358;SDS011;673;48.098;14.422;2024-02-28T06:52:50;181.53;;;166.80;;
1358;SDS011;673;48.098;14.422;2024-02-28T06:55:18;128.70;;;114.97;;
1358;SDS011;673;48.098;14.422;2024-02-28T06:57:46;181.00;;;166.20;;
1358;SDS011;673;48.098;14.422;2024-02-28T07:00:14;168.80;;;154.70;;
1358;SDS011;673;48.098;14.422;2024-02-28T07:02:44;135.87;;;121.63;;
1358;SDS011;673;48.098;14.422;2024-02-28T07:05:11;228.83;;;212.63;;
1358;SDS011;673;48.098;14.422;2024-02-28T07:07:38;224.73;;;208.90;;
1358;SDS011;673;48.098;14.422;2024-02-28T07:10:06;144.47;;;130.10;;
1358;SDS011;673;48.098;14.422;2024-02-28T07:12:33;115.83;;;85.43;;
1358;SDS011;673;48.098;14.422;2024-02-28T07:15:00;154.03;;;139.77;;
1358;SDS011;673;48.098;14.422;2024-02-28T07:17:28;155.77;;;141.87;;
1358;SDS011;673;48.098;14.422;2024-02-28T07:19:55;124.00;;;109.70;;
1358;SDS011;673;48.098;14.422;2024-02-28T07:22:22;140.47;;;126.77;;
1358;SDS011;673;48.098;14.422;2024-02-28T07:24:49;155.67;;;141.37;;
1358;SDS011;673;48.098;14.422;2024-02-28T07:27:16;150.93;;;137.07;;
1358;SDS011;673;48.098;14.422;2024-02-28T07:29:43;158.13;;;144.27;;
1358;SDS011;673;48.098;14.422;2024-02-28T07:32:10;179.00;;;164.00;;
1358;SDS011;673;48.098;14.422;2024-02-28T07:34:39;131.27;;;108.00;;
1358;SDS011;673;48.098;14.422;2024-02-28T07:37:06;125.30;;;112.10;;
1358;SDS011;673;48.098;14.422;2024-02-28T07:39:33;135.23;;;121.63;;
1358;SDS011;673;48.098;14.422;2024-02-28T07:42:00;122.90;;;107.90;;
1358;SDS011;673;48.098;14.422;2024-02-28T07:44:27;145.27;;;130.93;;
1358;SDS011;673;48.098;14.422;2024-02-28T07:46:56;175.23;;;160.47;;
1358;SDS011;673;48.098;14.422;2024-02-28T07:49:23;166.67;;;152.67;;
1358;SDS011;673;48.098;14.422;2024-02-28T07:51:52;142.53;;;128.70;;
1358;SDS011;673;48.098;14.422;2024-02-28T07:54:19;166.67;;;152.30;;
1358;SDS011;673;48.098;14.422;2024-02-28T07:56:46;181.93;;;167.53;;
1358;SDS011;673;48.098;14.422;2024-02-28T07:59:14;124.80;;;111.60;;
1358;SDS011;673;48.098;14.422;2024-02-28T08:01:41;114.43;;;89.07;;
1358;SDS011;673;48.098;14.422;2024-02-28T08:04:08;109.63;;;86.23;;
1358;SDS011;673;48.098;14.422;2024-02-28T08:06:35;102.97;;;48.93;;
1358;SDS011;673;48.098;14.422;2024-02-28T08:09:03;105.03;;;43.30;;
1358;SDS011;673;48.098;14.422;2024-02-28T08:11:30;96.53;;;37.03;;
1358;SDS011;673;48.098;14.422;2024-02-28T08:13:57;100.23;;;39.50;;
1358;SDS011;673;48.098;14.422;2024-02-28T08:16:24;102.50;;;37.50;;
1358;SDS011;673;48.098;14.422;2024-02-28T08:18:51;97.77;;;35.60;;
1358;SDS011;673;48.098;14.422;2024-02-28T08:21:18;99.93;;;36.77;;
1358;SDS011;673;48.098;14.422;2024-02-28T08:23:45;106.73;;;41.50;;
1358;SDS011;673;48.098;14.422;2024-02-28T08:26:14;98.57;;;34.77;;
1358;SDS011;673;48.098;14.422;2024-02-28T08:28:41;102.73;;;36.90;;
1358;SDS011;673;48.098;14.422;2024-02-28T08:31:07;100.80;;;35.97;;
1358;SDS011;673;48.098;14.422;2024-02-28T08:33:34;102.60;;;34.30;;
1358;SDS011;673;48.098;14.422;2024-02-28T08:36:01;101.30;;;36.77;;
1358;SDS011;673;48.098;14.422;2024-02-28T08:38:29;101.60;;;37.10;;
1358;SDS011;673;48.098;14.422;2024-02-28T08:40:56;101.00;;;36.23;;
1358;SDS011;673;48.098;14.422;2024-02-28T08:43:24;99.33;;;37.03;;
1358;SDS011;673;48.098;14.422;2024-02-28T08:45:51;101.23;;;38.27;;
1358;SDS011;673;48.098;14.422;2024-02-28T08:48:19;98.93;;;37.13;;
1358;SDS011;673;48.098;14.422;2024-02-28T08:50:46;101.13;;;36.57;;
1358;SDS011;673;48.098;14.422;2024-02-28T08:53:13;98.90;;;35.67;;
1358;SDS011;673;48.098;14.422;2024-02-28T08:55:40;107.50;;;37.77;;
1358;SDS011;673;48.098;14.422;2024-02-28T08:58:07;101.20;;;37.57;;
1358;SDS011;673;48.098;14.422;2024-02-28T09:00:37;95.37;;;36.00;;
1358;SDS011;673;48.098;14.422;2024-02-28T09:03:04;100.47;;;37.83;;
1358;SDS011;673;48.098;14.422;2024-02-28T09:05:31;101.00;;;41.83;;
1358;SDS011;673;48.098;14.422;2024-02-28T09:07:58;102.50;;;39.73;;
1358;SDS011;673;48.098;14.422;2024-02-28T09:10:26;99.17;;;41.30;;
1358;SDS011;673;48.098;14.422;2024-02-28T09:12:54;98.77;;;38.97;;
1358;SDS011;673;48.098;14.422;2024-02-28T09:15:20;102.60;;;41.67;;
1358;SDS011;673;48.098;14.422;2024-02-28T09:17:49;106.70;;;42.30;;
1358;SDS011;673;48.098;14.422;2024-02-28T09:20:16;96.80;;;36.77;;
1358;SDS011;673;48.098;14.422;2024-02-28T09:22:43;101.07;;;39.13;;
1358;SDS011;673;48.098;14.422;2024-02-28T09:25:10;100.73;;;41.10;;
1358;SDS011;673;48.098;14.422;2024-02-28T09:27:37;99.53;;;40.90;;
1358;SDS011;673;48.098;14.422;2024-02-28T09:30:04;100.17;;;43.00;;
1358;SDS011;673;48.098;14.422;2024-02-28T09:32:32;99.10;;;42.90;;
1358;SDS011;673;48.098;14.422;2024-02-28T09:35:00;100.93;;;42.80;;
1358;SDS011;673;48.098;14.422;2024-02-28T09:37:29;99.93;;;43.43;;
1358;SDS011;673;48.098;14.422;2024-02-28T09:39:56;100.17;;;41.33;;
1358;SDS011;673;48.098;14.422;2024-02-28T09:42:23;105.03;;;45.60;;
1358;SDS011;673;48.098;14.422;2024-02-28T09:44:51;99.23;;;40.60;;
1358;SDS011;673;48.098;14.422;2024-02-28T09:47:18;104.90;;;43.40;;
1358;SDS011;673;48.098;14.422;2024-02-28T09:49:45;95.27;;;39.17;;
1358;SDS011;673;48.098;14.422;2024-02-28T09:52:15;105.70;;;41.80;;
1358;SDS011;673;48.098;14.422;2024-02-28T09:54:42;98.13;;;53.73;;
1358;SDS011;673;48.098;14.422;2024-02-28T09:57:09;107.47;;;61.73;;
1358;SDS011;673;48.098;14.422;2024-02-28T09:59:37;107.07;;;70.73;;
1358;SDS011;673;48.098;14.422;2024-02-28T10:02:06;105.20;;;57.50;;
1358;SDS011;673;48.098;14.422;2024-02-28T10:04:37;103.43;;;62.00;;
1358;SDS011;673;48.098;14.422;2024-02-28T10:07:12;106.00;;;64.53;;
1358;SDS011;673;48.098;14.422;2024-02-28T10:09:40;99.33;;;50.83;;
1358;SDS011;673;48.098;14.422;2024-02-28T10:12:08;101.13;;;51.40;;
1358;SDS011;673;48.098;14.422;2024-02-28T10:14:35;105.53;;;50.63;;
1358;SDS011;673;48.098;14.422;2024-02-28T10:17:03;104.47;;;59.10;;
1358;SDS011;673;48.098;14.422;2024-02-28T10:19:30;107.13;;;64.77;;
1358;SDS011;673;48.098;14.422;2024-02-28T10:21:57;103.00;;;70.67;;
1358;SDS011;673;48.098;14.422;2024-02-28T10:24:25;191.30;;;176.70;;
1358;SDS011;673;48.098;14.422;2024-02-28T10:26:54;242.90;;;226.57;;
1358;SDS011;673;48.098;14.422;2024-02-28T10:29:21;302.67;;;285.33;;
1358;SDS011;673;48.098;14.422;2024-02-28T10:31:49;300.80;;;283.10;;
1358;SDS011;673;48.098;14.422;2024-02-28T10:34:16;322.10;;;304.30;;
1358;SDS011;673;48.098;14.422;2024-02-28T10:36:44;291.00;;;274.00;;
1358;SDS011;673;48.098;14.422;2024-02-28T10:39:11;301.43;;;283.73;;
1358;SDS011;673;48.098;14.422;2024-02-28T10:41:39;173.77;;;159.57;;
1358;SDS011;673;48.098;14.422;2024-02-28T10:44:08;271.47;;;254.93;;
1358;SDS011;673;48.098;14.422;2024-02-28T10:46:37;160.87;;;146.97;;
1358;SDS011;673;48.098;14.422;2024-02-28T10:49:04;326.90;;;308.80;;
1358;SDS011;673;48.098;14.422;2024-02-28T10:51:33;114.23;;;81.17;;
1358;SDS011;673;48.098;14.422;2024-02-28T10:54:04;288.43;;;270.97;;
1358;SDS011;673;48.098;14.422;2024-02-28T10:56:36;261.17;;;244.80;;
1358;SDS011;673;48.098;14.422;2024-02-28T10:59:03;128.60;;;115.60;;
1358;SDS011;673;48.098;14.422;2024-02-28T11:01:35;322.70;;;304.90;;
1358;SDS011;673;48.098;14.422;2024-02-28T11:04:03;350.33;;;331.93;;
1358;SDS011;673;48.098;14.422;2024-02-28T11:06:31;369.20;;;349.73;;
1358;SDS011;673;48.098;14.422;2024-02-28T11:08:59;361.73;;;343.13;;
1358;SDS011;673;48.098;14.422;2024-02-28T11:11:29;360.63;;;341.43;;
1358;SDS011;673;48.098;14.422;2024-02-28T11:13:58;328.07;;;310.27;;
1358;SDS011;673;48.098;14.422;2024-02-28T11:16:26;222.00;;;206.60;;
1358;SDS011;673;48.098;14.422;2024-02-28T11:18:55;204.17;;;189.47;;
1358;SDS011;673;48.098;14.422;2024-02-28T11:21:23;129.53;;;116.33;;
1358;SDS011;673;48.098;14.422;2024-02-28T11:23:51;126.43;;;113.63;;
1358;SDS011;673;48.098;14.422;2024-02-28T11:26:18;109.27;;;63.67;;
1358;SDS011;673;48.098;14.422;2024-02-28T11:28:46;107.40;;;87.40;;
1358;SDS011;673;48.098;14.422;2024-02-28T11:31:14;167.33;;;153.37;;
1358;SDS011;673;48.098;14.422;2024-02-28T11:33:41;134.20;;;120.90;;
1358;SDS011;673;48.098;14.422;2024-02-28T11:36:09;175.90;;;161.70;;
1358;SDS011;673;48.098;14.422;2024-02-28T11:38:38;297.77;;;280.67;;
1358;SDS011;673;48.098;14.422;2024-02-28T11:41:05;182.13;;;167.83;;
1358;SDS011;673;48.098;14.422;2024-02-28T11:43:33;136.30;;;122.97;;
1358;SDS011;673;48.098;14.422;2024-02-28T11:46:00;141.40;;;127.60;;
1358;SDS011;673;48.098;14.422;2024-02-28T11:48:29;164.43;;;150.77;;
1358;SDS011;673;48.098;14.422;2024-02-28T11:50:58;114.47;;;93.07;;
1358;SDS011;673;48.098;14.422;2024-02-28T11:53:26;106.20;;;79.03;;
1358;SDS011;673;48.098;14.422;2024-02-28T11:55:53;113.63;;;69.23;;
1358;SDS011;673;48.098;14.422;2024-02-28T11:58:21;125.47;;;77.70;;
1358;SDS011;673;48.098;14.422;2024-02-28T12:00:48;112.83;;;67.13;;
1358;SDS011;673;48.098;14.422;2024-02-28T12:03:19;102.33;;;62.23;;
1358;SDS011;673;48.098;14.422;2024-02-28T12:05:47;112.53;;;75.00;;
1358;SDS011;673;48.098;14.422;2024-02-28T12:08:14;109.33;;;79.97;;
1358;SDS011;673;48.098;14.422;2024-02-28T12:10:43;111.00;;;68.20;;
1358;SDS011;673;48.098;14.422;2024-02-28T12:13:10;116.33;;;67.20;;
1358;SDS011;673;48.098;14.422;2024-02-28T12:15:38;115.27;;;75.33;;
1358;SDS011;673;48.098;14.422;2024-02-28T12:18:07;146.20;;;132.40;;
1358;SDS011;673;48.098;14.422;2024-02-28T12:20:35;113.70;;;92.27;;
1358;SDS011;673;48.098;14.422;2024-02-28T12:23:03;113.73;;;82.53;;
1358;SDS011;673;48.098;14.422;2024-02-28T12:25:30;111.83;;;81.07;;
1358;SDS011;673;48.098;14.422;2024-02-28T12:27:58;175.70;;;161.63;;
1358;SDS011;673;48.098;14.422;2024-02-28T12:30:26;111.80;;;81.37;;
1358;SDS011;673;48.098;14.422;2024-02-28T12:32:53;118.33;;;104.93;;
1358;SDS011;673;48.098;14.422;2024-02-28T12:35:20;104.90;;;66.00;;
1358;SDS011;673;48.098;14.422;2024-02-28T12:37:46;107.73;;;78.77;;
1358;SDS011;673;48.098;14.422;2024-02-28T12:40:23;108.70;;;62.33;;
1358;SDS011;673;48.098;14.422;2024-02-28T12:42:50;118.93;;;74.87;;
1358;SDS011;673;48.098;14.422;2024-02-28T12:45:18;111.67;;;74.20;;
1358;SDS011;673;48.098;14.422;2024-02-28T12:47:45;110.17;;;68.67;;
1358;SDS011;673;48.098;14.422;2024-02-28T12:50:12;115.87;;;79.10;;
1358;SDS011;673;48.098;14.422;2024-02-28T12:52:39;113.90;;;95.17;;
1358;SDS011;673;48.098;14.422;2024-02-28T12:55:06;118.07;;;93.07;;
1358;SDS011;673;48.098;14.422;2024-02-28T12:57:34;144.07;;;129.80;;
1358;SDS011;673;48.098;14.422;2024-02-28T13:00:01;144.87;;;130.87;;
1358;SDS011;673;48.098;14.422;2024-02-28T13:02:29;141.77;;;128.07;;
1358;SDS011;673;48.098;14.422;2024-02-28T13:04:56;147.87;;;133.27;;
1358;SDS011;673;48.098;14.422;2024-02-28T13:07:24;133.90;;;120.27;;
1358;SDS011;673;48.098;14.422;2024-02-28T13:09:51;138.80;;;124.80;;
1358;SDS011;673;48.098;14.422;2024-02-28T13:12:18;151.13;;;137.03;;
1358;SDS011;673;48.098;14.422;2024-02-28T13:14:45;142.03;;;127.57;;
1358;SDS011;673;48.098;14.422;2024-02-28T13:17:12;144.87;;;131.00;;
1358;SDS011;673;48.098;14.422;2024-02-28T13:19:42;130.63;;;117.30;;
1358;SDS011;673;48.098;14.422;2024-02-28T13:22:09;118.37;;;79.30;;
1358;SDS011;673;48.098;14.422;2024-02-28T13:24:36;108.67;;;60.30;;
1358;SDS011;673;48.098;14.422;2024-02-28T13:27:03;110.37;;;46.20;;
1358;SDS011;673;48.098;14.422;2024-02-28T13:29:30;116.13;;;46.73;;
1358;SDS011;673;48.098;14.422;2024-02-28T13:31:57;113.10;;;63.97;;
1358;SDS011;673;48.098;14.422;2024-02-28T13:34:24;109.40;;;64.73;;
1358;SDS011;673;48.098;14.422;2024-02-28T13:36:53;112.40;;;66.07;;
1358;SDS011;673;48.098;14.422;2024-02-28T13:39:20;113.93;;;61.43;;
1358;SDS011;673;48.098;14.422;2024-02-28T13:41:48;105.33;;;53.07;;
1358;SDS011;673;48.098;14.422;2024-02-28T13:44:16;115.53;;;49.50;;
1358;SDS011;673;48.098;14.422;2024-02-28T13:46:44;111.87;;;52.10;;
1358;SDS011;673;48.098;14.422;2024-02-28T13:49:11;114.60;;;66.83;;
1358;SDS011;673;48.098;14.422;2024-02-28T13:51:39;111.47;;;65.53;;
1358;SDS011;673;48.098;14.422;2024-02-28T13:54:07;118.63;;;70.80;;
1358;SDS011;673;48.098;14.422;2024-02-28T13:56:34;108.73;;;53.10;;
1358;SDS011;673;48.098;14.422;2024-02-28T13:59:02;107.87;;;54.40;;
1358;SDS011;673;48.098;14.422;2024-02-28T14:01:31;108.17;;;46.03;;
1358;SDS011;673;48.098;14.422;2024-02-28T14:03:58;108.47;;;49.37;;
1358;SDS011;673;48.098;14.422;2024-02-28T14:06:25;120.17;;;56.30;;
1358;SDS011;673;48.098;14.422;2024-02-28T14:08:53;109.83;;;47.07;;
1358;SDS011;673;48.098;14.422;2024-02-28T14:11:22;108.40;;;42.80;;
1358;SDS011;673;48.098;14.422;2024-02-28T14:13:49;109.20;;;44.47;;
1358;SDS011;673;48.098;14.422;2024-02-28T14:16:16;107.50;;;41.90;;
1358;SDS011;673;48.098;14.422;2024-02-28T14:18:44;110.20;;;45.80;;
1358;SDS011;673;48.098;14.422;2024-02-28T14:21:11;111.07;;;47.60;;
1358;SDS011;673;48.098;14.422;2024-02-28T14:23:38;107.03;;;42.10;;
1358;SDS011;673;48.098;14.422;2024-02-28T14:26:06;107.73;;;41.17;;
1358;SDS011;673;48.098;14.422;2024-02-28T14:28:34;108.57;;;42.47;;